Ana Sayfa
METAR-TAF:

METAR-TAF

Havaalanları :

Monroe, Louisiana, Amerika Birleşik Devletleri

Enlem: 32-30-42N, Boylam: 092-01-53W, yükseklik: 24 m

Güncel hava durumu gözlemi

Rapor saat 08:53 UTC de 1 saat ve 3 dakika önce yapıldı.
Sakin rüzgar
Sıcaklık 25°C
Nem 89%
Basınç 1014 hPa
Görüş mesafesi: 16.1 km
Açık gökyüzü

METAR: KMLU 250853Z AUTO 00000KT 10SM CLR 25/23 A2994 RMK AO2 SLP135 T02500233 51002

Saat: 04:56 (09:56 UTC)

Tahmin

Rapor saat 05:20 UTC de 4 saat ve 36 dakika önce yapıldı.
Ayın 25'si saat 06 UTC'den ayın 26'si saat 06 UTC'ye kadar geçerli Tahmin
Rüzgar değişken yönden 3 kt
Görüş mesafesi: 10 km
Açık gökyüzü
Ayın 25'si saat 1700 UTC'den
Rüzgar güneydan 5 kt
Görüş mesafesi: 10 km
5000 ft yükseklikte parçalı bulutlu
Ayın 26'si saat 0300 UTC'den
Rüzgar güney/güneybatıdan 2 kt
Görüş mesafesi: 10 km
Açık gökyüzü

TAF: KMLU 250520Z 2506/2606 VRB03KT P6SM SKC FM251700 19005KT P6SM SCT050 FM260300 20002KT P6SM SKC

4.000'den fazla havaalanı için hava durumu gözlemleri ve tahminleri (METAR ve TAF raporları).

Kullanılabilir istasyonlar harita üzerinde sarı ve kırmızı noktalarla gösterilir.

İstasyonun adını görmek için fareyi noktanın üzerinde gezdirin.

Sonrasında hava gözlem ve tahminlerini görmek için tıklayın.

Haritayı değiştirmek için: yaklaştırmak için siyah artı işaretli yeşil düğmeye ve uzaklaştırmak için de eksi işaretli düğmeye hızla tıklayın; bitişik haritalar için yeşil okları kullanın.


METAR-TAF: